sensor_id;sensor_type;location;lat;lon;timestamp;P1;durP1;ratioP1;P2;durP2;ratioP2
70153;SDS011;57519;51.494;-2.626;2022-12-05T00:01:35;16.75;;;10.13;;
70153;SDS011;57519;51.494;-2.626;2022-12-05T00:04:05;19.65;;;10.32;;
70153;SDS011;57519;51.494;-2.626;2022-12-05T00:06:34;16.75;;;8.55;;
70153;SDS011;57519;51.494;-2.626;2022-12-05T00:09:01;13.67;;;9.53;;
70153;SDS011;57519;51.494;-2.626;2022-12-05T00:11:28;13.63;;;7.40;;
70153;SDS011;57519;51.494;-2.626;2022-12-05T00:13:56;17.60;;;9.45;;
70153;SDS011;57519;51.494;-2.626;2022-12-05T00:16:23;20.85;;;11.13;;
70153;SDS011;57519;51.494;-2.626;2022-12-05T00:18:50;17.23;;;8.23;;
70153;SDS011;57519;51.494;-2.626;2022-12-05T00:21:20;12.83;;;8.33;;
70153;SDS011;57519;51.494;-2.626;2022-12-05T00:23:47;18.02;;;9.95;;
70153;SDS011;57519;51.494;-2.626;2022-12-05T00:26:13;13.00;;;7.43;;
70153;SDS011;57519;51.494;-2.626;2022-12-05T00:28:39;14.90;;;8.15;;
70153;SDS011;57519;51.494;-2.626;2022-12-05T00:31:05;13.33;;;6.83;;
70153;SDS011;57519;51.494;-2.626;2022-12-05T00:33:32;16.55;;;9.18;;
70153;SDS011;57519;51.494;-2.626;2022-12-05T00:36:08;16.83;;;9.87;;
70153;SDS011;57519;51.494;-2.626;2022-12-05T00:38:38;15.68;;;8.95;;
70153;SDS011;57519;51.494;-2.626;2022-12-05T00:41:14;19.80;;;9.80;;
70153;SDS011;57519;51.494;-2.626;2022-12-05T00:43:41;21.60;;;11.48;;
70153;SDS011;57519;51.494;-2.626;2022-12-05T00:46:13;22.42;;;10.07;;
70153;SDS011;57519;51.494;-2.626;2022-12-05T00:48:40;18.38;;;9.52;;
70153;SDS011;57519;51.494;-2.626;2022-12-05T00:51:10;12.83;;;6.73;;
70153;SDS011;57519;51.494;-2.626;2022-12-05T00:53:37;17.88;;;9.93;;
70153;SDS011;57519;51.494;-2.626;2022-12-05T00:56:04;25.92;;;13.07;;
70153;SDS011;57519;51.494;-2.626;2022-12-05T00:58:32;12.53;;;7.60;;
70153;SDS011;57519;51.494;-2.626;2022-12-05T01:01:04;20.52;;;9.63;;
70153;SDS011;57519;51.494;-2.626;2022-12-05T01:03:41;12.55;;;8.48;;
70153;SDS011;57519;51.494;-2.626;2022-12-05T01:06:07;21.45;;;10.18;;
70153;SDS011;57519;51.494;-2.626;2022-12-05T01:08:33;13.87;;;8.33;;
70153;SDS011;57519;51.494;-2.626;2022-12-05T01:10:59;20.77;;;10.52;;
70153;SDS011;57519;51.494;-2.626;2022-12-05T01:13:25;11.60;;;8.13;;
70153;SDS011;57519;51.494;-2.626;2022-12-05T01:15:52;17.45;;;9.95;;
70153;SDS011;57519;51.494;-2.626;2022-12-05T01:18:18;30.90;;;15.20;;
70153;SDS011;57519;51.494;-2.626;2022-12-05T01:20:44;21.40;;;12.18;;
70153;SDS011;57519;51.494;-2.626;2022-12-05T01:23:10;20.60;;;9.90;;
70153;SDS011;57519;51.494;-2.626;2022-12-05T01:25:43;21.10;;;10.25;;
70153;SDS011;57519;51.494;-2.626;2022-12-05T01:28:11;27.40;;;11.98;;
70153;SDS011;57519;51.494;-2.626;2022-12-05T01:30:41;23.88;;;12.40;;
70153;SDS011;57519;51.494;-2.626;2022-12-05T01:33:08;25.30;;;12.33;;
70153;SDS011;57519;51.494;-2.626;2022-12-05T01:35:34;12.65;;;7.30;;
70153;SDS011;57519;51.494;-2.626;2022-12-05T01:38:01;28.30;;;11.65;;
70153;SDS011;57519;51.494;-2.626;2022-12-05T01:40:28;16.52;;;9.80;;
70153;SDS011;57519;51.494;-2.626;2022-12-05T01:42:54;17.80;;;8.43;;
70153;SDS011;57519;51.494;-2.626;2022-12-05T01:45:39;25.83;;;11.50;;
70153;SDS011;57519;51.494;-2.626;2022-12-05T01:48:10;24.13;;;10.25;;
70153;SDS011;57519;51.494;-2.626;2022-12-05T01:50:42;17.00;;;10.95;;
70153;SDS011;57519;51.494;-2.626;2022-12-05T01:53:08;24.05;;;11.55;;
70153;SDS011;57519;51.494;-2.626;2022-12-05T01:55:34;19.33;;;10.07;;
70153;SDS011;57519;51.494;-2.626;2022-12-05T01:58:00;13.48;;;8.32;;
70153;SDS011;57519;51.494;-2.626;2022-12-05T02:00:27;22.58;;;10.50;;
70153;SDS011;57519;51.494;-2.626;2022-12-05T02:02:55;17.65;;;9.52;;
70153;SDS011;57519;51.494;-2.626;2022-12-05T02:05:28;23.53;;;10.50;;
70153;SDS011;57519;51.494;-2.626;2022-12-05T02:08:00;14.88;;;9.07;;
70153;SDS011;57519;51.494;-2.626;2022-12-05T02:10:34;19.65;;;10.30;;
70153;SDS011;57519;51.494;-2.626;2022-12-05T02:15:51;21.30;;;11.52;;
70153;SDS011;57519;51.494;-2.626;2022-12-05T02:18:23;21.53;;;10.83;;
70153;SDS011;57519;51.494;-2.626;2022-12-05T02:24:14;21.33;;;10.75;;
70153;SDS011;57519;51.494;-2.626;2022-12-05T02:26:18;16.77;;;8.30;;
70153;SDS011;57519;51.494;-2.626;2022-12-05T02:29:29;19.90;;;11.00;;
70153;SDS011;57519;51.494;-2.626;2022-12-05T02:33:05;18.40;;;10.37;;
70153;SDS011;57519;51.494;-2.626;2022-12-05T02:40:30;22.35;;;10.68;;
70153;SDS011;57519;51.494;-2.626;2022-12-05T02:43:06;17.63;;;9.68;;
70153;SDS011;57519;51.494;-2.626;2022-12-05T02:45:41;10.57;;;7.87;;
70153;SDS011;57519;51.494;-2.626;2022-12-05T02:48:10;22.13;;;9.80;;
70153;SDS011;57519;51.494;-2.626;2022-12-05T02:50:39;27.73;;;13.15;;
70153;SDS011;57519;51.494;-2.626;2022-12-05T02:53:08;21.98;;;11.43;;
70153;SDS011;57519;51.494;-2.626;2022-12-05T02:55:35;25.80;;;11.82;;
70153;SDS011;57519;51.494;-2.626;2022-12-05T02:58:04;22.33;;;11.90;;
70153;SDS011;57519;51.494;-2.626;2022-12-05T03:00:36;21.55;;;10.63;;
70153;SDS011;57519;51.494;-2.626;2022-12-05T03:03:05;8.35;;;5.43;;
70153;SDS011;57519;51.494;-2.626;2022-12-05T03:08:31;21.42;;;11.40;;
70153;SDS011;57519;51.494;-2.626;2022-12-05T03:11:01;28.20;;;12.70;;
70153;SDS011;57519;51.494;-2.626;2022-12-05T03:13:39;20.10;;;9.60;;
70153;SDS011;57519;51.494;-2.626;2022-12-05T03:16:13;17.90;;;9.88;;
70153;SDS011;57519;51.494;-2.626;2022-12-05T03:18:46;20.92;;;10.48;;
70153;SDS011;57519;51.494;-2.626;2022-12-05T03:23:55;25.33;;;12.20;;
70153;SDS011;57519;51.494;-2.626;2022-12-05T03:26:36;26.02;;;13.02;;
70153;SDS011;57519;51.494;-2.626;2022-12-05T03:29:18;22.20;;;10.23;;
70153;SDS011;57519;51.494;-2.626;2022-12-05T03:32:04;15.80;;;9.50;;
70153;SDS011;57519;51.494;-2.626;2022-12-05T03:34:42;21.33;;;11.02;;
70153;SDS011;57519;51.494;-2.626;2022-12-05T03:43:13;14.77;;;8.52;;
70153;SDS011;57519;51.494;-2.626;2022-12-05T03:46:03;12.63;;;7.75;;
70153;SDS011;57519;51.494;-2.626;2022-12-05T03:48:38;10.52;;;7.32;;
70153;SDS011;57519;51.494;-2.626;2022-12-05T03:51:08;27.80;;;13.00;;
70153;SDS011;57519;51.494;-2.626;2022-12-05T03:53:45;30.42;;;13.30;;
70153;SDS011;57519;51.494;-2.626;2022-12-05T03:56:16;15.70;;;8.32;;
70153;SDS011;57519;51.494;-2.626;2022-12-05T03:59:01;22.17;;;10.75;;
70153;SDS011;57519;51.494;-2.626;2022-12-05T04:01:31;26.23;;;12.88;;
70153;SDS011;57519;51.494;-2.626;2022-12-05T04:04:02;21.30;;;9.23;;
70153;SDS011;57519;51.494;-2.626;2022-12-05T04:06:35;16.38;;;9.25;;
70153;SDS011;57519;51.494;-2.626;2022-12-05T04:09:04;21.08;;;10.20;;
70153;SDS011;57519;51.494;-2.626;2022-12-05T04:11:35;25.42;;;10.90;;
70153;SDS011;57519;51.494;-2.626;2022-12-05T04:14:09;23.27;;;11.82;;
70153;SDS011;57519;51.494;-2.626;2022-12-05T04:16:42;28.20;;;11.83;;
70153;SDS011;57519;51.494;-2.626;2022-12-05T04:22:29;18.00;;;8.10;;
70153;SDS011;57519;51.494;-2.626;2022-12-05T04:24:55;26.17;;;11.48;;
70153;SDS011;57519;51.494;-2.626;2022-12-05T04:27:45;29.07;;;12.07;;
70153;SDS011;57519;51.494;-2.626;2022-12-05T04:30:18;19.58;;;10.98;;
70153;SDS011;57519;51.494;-2.626;2022-12-05T04:32:51;20.92;;;10.30;;
70153;SDS011;57519;51.494;-2.626;2022-12-05T04:35:36;18.13;;;10.52;;
70153;SDS011;57519;51.494;-2.626;2022-12-05T04:38:20;26.48;;;12.73;;
70153;SDS011;57519;51.494;-2.626;2022-12-05T04:40:55;13.90;;;7.43;;
70153;SDS011;57519;51.494;-2.626;2022-12-05T04:43:24;25.75;;;12.48;;
70153;SDS011;57519;51.494;-2.626;2022-12-05T04:45:52;13.32;;;8.70;;
70153;SDS011;57519;51.494;-2.626;2022-12-05T04:48:21;28.77;;;12.73;;
70153;SDS011;57519;51.494;-2.626;2022-12-05T04:50:48;19.48;;;11.20;;
70153;SDS011;57519;51.494;-2.626;2022-12-05T04:53:15;25.30;;;11.30;;
70153;SDS011;57519;51.494;-2.626;2022-12-05T04:55:43;11.80;;;8.02;;
70153;SDS011;57519;51.494;-2.626;2022-12-05T04:58:13;22.95;;;9.32;;
70153;SDS011;57519;51.494;-2.626;2022-12-05T05:03:30;21.52;;;9.98;;
70153;SDS011;57519;51.494;-2.626;2022-12-05T05:06:16;29.80;;;12.97;;
70153;SDS011;57519;51.494;-2.626;2022-12-05T05:08:49;24.58;;;12.10;;
70153;SDS011;57519;51.494;-2.626;2022-12-05T05:11:18;25.88;;;13.85;;
70153;SDS011;57519;51.494;-2.626;2022-12-05T05:13:48;17.87;;;9.53;;
70153;SDS011;57519;51.494;-2.626;2022-12-05T05:16:15;14.38;;;9.10;;
70153;SDS011;57519;51.494;-2.626;2022-12-05T05:18:46;24.27;;;11.95;;
70153;SDS011;57519;51.494;-2.626;2022-12-05T05:23:48;18.77;;;9.73;;
70153;SDS011;57519;51.494;-2.626;2022-12-05T05:26:14;15.43;;;9.53;;
70153;SDS011;57519;51.494;-2.626;2022-12-05T05:28:40;21.10;;;11.23;;
70153;SDS011;57519;51.494;-2.626;2022-12-05T05:31:06;28.27;;;13.63;;
70153;SDS011;57519;51.494;-2.626;2022-12-05T05:33:32;27.35;;;12.48;;
70153;SDS011;57519;51.494;-2.626;2022-12-05T05:36:08;14.10;;;7.45;;
70153;SDS011;57519;51.494;-2.626;2022-12-05T05:38:39;23.88;;;9.13;;
70153;SDS011;57519;51.494;-2.626;2022-12-05T05:41:10;25.37;;;12.13;;
70153;SDS011;57519;51.494;-2.626;2022-12-05T05:43:43;24.02;;;9.77;;
70153;SDS011;57519;51.494;-2.626;2022-12-05T05:46:09;27.02;;;12.40;;
70153;SDS011;57519;51.494;-2.626;2022-12-05T05:48:36;23.63;;;12.02;;
70153;SDS011;57519;51.494;-2.626;2022-12-05T05:51:02;19.55;;;10.98;;
70153;SDS011;57519;51.494;-2.626;2022-12-05T05:53:29;15.40;;;8.83;;
70153;SDS011;57519;51.494;-2.626;2022-12-05T05:55:55;24.98;;;11.45;;
70153;SDS011;57519;51.494;-2.626;2022-12-05T05:58:20;21.20;;;10.83;;
70153;SDS011;57519;51.494;-2.626;2022-12-05T06:00:46;15.77;;;9.17;;
70153;SDS011;57519;51.494;-2.626;2022-12-05T06:03:11;24.50;;;12.87;;
70153;SDS011;57519;51.494;-2.626;2022-12-05T06:05:37;24.52;;;11.68;;
70153;SDS011;57519;51.494;-2.626;2022-12-05T06:08:03;20.27;;;10.17;;
70153;SDS011;57519;51.494;-2.626;2022-12-05T06:10:28;17.47;;;9.47;;
70153;SDS011;57519;51.494;-2.626;2022-12-05T06:12:54;26.17;;;12.98;;
70153;SDS011;57519;51.494;-2.626;2022-12-05T06:15:21;21.88;;;10.95;;
70153;SDS011;57519;51.494;-2.626;2022-12-05T06:17:46;17.27;;;9.20;;
70153;SDS011;57519;51.494;-2.626;2022-12-05T06:20:12;24.60;;;11.73;;
70153;SDS011;57519;51.494;-2.626;2022-12-05T06:22:37;23.53;;;11.57;;
70153;SDS011;57519;51.494;-2.626;2022-12-05T06:25:03;24.50;;;11.17;;
70153;SDS011;57519;51.494;-2.626;2022-12-05T06:27:29;31.58;;;12.30;;
70153;SDS011;57519;51.494;-2.626;2022-12-05T06:29:55;19.92;;;8.27;;
70153;SDS011;57519;51.494;-2.626;2022-12-05T06:32:21;22.93;;;11.03;;
70153;SDS011;57519;51.494;-2.626;2022-12-05T06:34:46;22.40;;;11.67;;
70153;SDS011;57519;51.494;-2.626;2022-12-05T06:37:11;26.05;;;11.90;;
70153;SDS011;57519;51.494;-2.626;2022-12-05T06:39:37;24.60;;;11.43;;
70153;SDS011;57519;51.494;-2.626;2022-12-05T06:42:02;18.70;;;10.83;;
70153;SDS011;57519;51.494;-2.626;2022-12-05T06:44:28;24.47;;;12.20;;
70153;SDS011;57519;51.494;-2.626;2022-12-05T06:46:54;23.83;;;10.40;;
70153;SDS011;57519;51.494;-2.626;2022-12-05T06:49:20;20.55;;;10.77;;
70153;SDS011;57519;51.494;-2.626;2022-12-05T06:51:46;25.80;;;11.83;;
70153;SDS011;57519;51.494;-2.626;2022-12-05T06:54:12;20.48;;;10.40;;
70153;SDS011;57519;51.494;-2.626;2022-12-05T06:56:37;18.90;;;9.67;;
70153;SDS011;57519;51.494;-2.626;2022-12-05T06:59:03;26.58;;;12.15;;
70153;SDS011;57519;51.494;-2.626;2022-12-05T07:01:28;29.77;;;12.00;;
70153;SDS011;57519;51.494;-2.626;2022-12-05T07:04:16;17.75;;;7.93;;
70153;SDS011;57519;51.494;-2.626;2022-12-05T07:06:44;25.92;;;12.07;;
70153;SDS011;57519;51.494;-2.626;2022-12-05T07:09:13;23.53;;;10.83;;
70153;SDS011;57519;51.494;-2.626;2022-12-05T07:11:38;23.98;;;11.07;;
70153;SDS011;57519;51.494;-2.626;2022-12-05T07:14:03;26.17;;;11.37;;
70153;SDS011;57519;51.494;-2.626;2022-12-05T07:16:30;20.67;;;10.23;;
70153;SDS011;57519;51.494;-2.626;2022-12-05T07:18:55;17.13;;;10.07;;
70153;SDS011;57519;51.494;-2.626;2022-12-05T07:21:21;38.65;;;9.57;;
70153;SDS011;57519;51.494;-2.626;2022-12-05T07:23:47;17.83;;;10.67;;
70153;SDS011;57519;51.494;-2.626;2022-12-05T07:26:18;18.73;;;9.20;;
70153;SDS011;57519;51.494;-2.626;2022-12-05T07:28:46;21.00;;;9.73;;
70153;SDS011;57519;51.494;-2.626;2022-12-05T07:31:13;15.38;;;7.18;;
70153;SDS011;57519;51.494;-2.626;2022-12-05T07:33:40;23.52;;;9.55;;
70153;SDS011;57519;51.494;-2.626;2022-12-05T07:36:08;13.68;;;8.80;;
70153;SDS011;57519;51.494;-2.626;2022-12-05T07:38:36;16.83;;;9.07;;
70153;SDS011;57519;51.494;-2.626;2022-12-05T07:41:05;18.52;;;10.18;;
70153;SDS011;57519;51.494;-2.626;2022-12-05T07:43:32;23.83;;;12.18;;
70153;SDS011;57519;51.494;-2.626;2022-12-05T07:46:04;9.33;;;7.10;;
70153;SDS011;57519;51.494;-2.626;2022-12-05T07:48:34;23.77;;;10.85;;
70153;SDS011;57519;51.494;-2.626;2022-12-05T07:51:00;19.38;;;8.80;;
70153;SDS011;57519;51.494;-2.626;2022-12-05T07:53:26;24.23;;;11.43;;
70153;SDS011;57519;51.494;-2.626;2022-12-05T07:55:52;13.43;;;8.57;;
70153;SDS011;57519;51.494;-2.626;2022-12-05T07:58:17;21.53;;;9.93;;
70153;SDS011;57519;51.494;-2.626;2022-12-05T08:00:43;13.70;;;7.37;;
70153;SDS011;57519;51.494;-2.626;2022-12-05T08:03:08;23.70;;;11.83;;
70153;SDS011;57519;51.494;-2.626;2022-12-05T08:05:33;18.23;;;10.57;;
70153;SDS011;57519;51.494;-2.626;2022-12-05T08:07:59;15.32;;;9.35;;
70153;SDS011;57519;51.494;-2.626;2022-12-05T08:10:24;36.47;;;15.10;;
70153;SDS011;57519;51.494;-2.626;2022-12-05T08:12:50;24.17;;;10.63;;
70153;SDS011;57519;51.494;-2.626;2022-12-05T08:15:15;27.60;;;10.98;;
70153;SDS011;57519;51.494;-2.626;2022-12-05T08:17:41;24.07;;;12.47;;
70153;SDS011;57519;51.494;-2.626;2022-12-05T08:20:06;14.13;;;8.93;;
70153;SDS011;57519;51.494;-2.626;2022-12-05T08:22:32;22.80;;;11.20;;
70153;SDS011;57519;51.494;-2.626;2022-12-05T08:24:57;28.50;;;12.57;;
70153;SDS011;57519;51.494;-2.626;2022-12-05T08:27:23;22.37;;;11.53;;
70153;SDS011;57519;51.494;-2.626;2022-12-05T08:29:48;22.00;;;9.13;;
70153;SDS011;57519;51.494;-2.626;2022-12-05T08:32:14;15.20;;;9.33;;
70153;SDS011;57519;51.494;-2.626;2022-12-05T08:34:39;20.45;;;11.35;;
70153;SDS011;57519;51.494;-2.626;2022-12-05T08:37:05;29.87;;;14.47;;
70153;SDS011;57519;51.494;-2.626;2022-12-05T08:39:30;17.30;;;9.07;;
70153;SDS011;57519;51.494;-2.626;2022-12-05T08:41:56;20.90;;;12.80;;
70153;SDS011;57519;51.494;-2.626;2022-12-05T08:44:21;17.47;;;9.80;;
70153;SDS011;57519;51.494;-2.626;2022-12-05T08:46:47;26.63;;;11.80;;
70153;SDS011;57519;51.494;-2.626;2022-12-05T08:49:14;19.95;;;10.80;;
70153;SDS011;57519;51.494;-2.626;2022-12-05T08:51:40;18.47;;;9.60;;
70153;SDS011;57519;51.494;-2.626;2022-12-05T08:54:06;22.25;;;10.90;;
70153;SDS011;57519;51.494;-2.626;2022-12-05T08:56:32;28.73;;;12.63;;
70153;SDS011;57519;51.494;-2.626;2022-12-05T08:58:58;20.25;;;10.55;;
70153;SDS011;57519;51.494;-2.626;2022-12-05T09:01:24;23.75;;;12.48;;
70153;SDS011;57519;51.494;-2.626;2022-12-05T09:03:54;18.20;;;10.43;;
70153;SDS011;57519;51.494;-2.626;2022-12-05T09:06:21;26.67;;;11.83;;
70153;SDS011;57519;51.494;-2.626;2022-12-05T09:08:48;19.55;;;9.93;;
70153;SDS011;57519;51.494;-2.626;2022-12-05T09:11:17;21.02;;;11.70;;
70153;SDS011;57519;51.494;-2.626;2022-12-05T09:13:49;29.75;;;13.75;;
70153;SDS011;57519;51.494;-2.626;2022-12-05T09:16:23;26.27;;;10.57;;
70153;SDS011;57519;51.494;-2.626;2022-12-05T09:18:50;22.20;;;11.23;;
70153;SDS011;57519;51.494;-2.626;2022-12-05T09:21:18;24.20;;;12.85;;
70153;SDS011;57519;51.494;-2.626;2022-12-05T09:23:48;26.13;;;11.32;;
70153;SDS011;57519;51.494;-2.626;2022-12-05T09:26:15;25.08;;;12.82;;
70153;SDS011;57519;51.494;-2.626;2022-12-05T09:28:43;20.90;;;10.60;;
70153;SDS011;57519;51.494;-2.626;2022-12-05T09:31:09;24.85;;;11.68;;
70153;SDS011;57519;51.494;-2.626;2022-12-05T09:33:36;21.58;;;12.25;;
70153;SDS011;57519;51.494;-2.626;2022-12-05T09:36:02;17.97;;;10.27;;
70153;SDS011;57519;51.494;-2.626;2022-12-05T09:38:33;20.40;;;11.55;;
70153;SDS011;57519;51.494;-2.626;2022-12-05T09:41:04;21.90;;;11.57;;
70153;SDS011;57519;51.494;-2.626;2022-12-05T09:46:27;12.60;;;8.70;;
70153;SDS011;57519;51.494;-2.626;2022-12-05T09:49:03;17.77;;;9.93;;
70153;SDS011;57519;51.494;-2.626;2022-12-05T09:51:30;16.55;;;10.15;;
70153;SDS011;57519;51.494;-2.626;2022-12-05T09:53:56;20.10;;;11.07;;
70153;SDS011;57519;51.494;-2.626;2022-12-05T09:56:28;16.73;;;10.10;;
70153;SDS011;57519;51.494;-2.626;2022-12-05T09:58:55;22.97;;;13.53;;
70153;SDS011;57519;51.494;-2.626;2022-12-05T10:01:25;23.45;;;12.30;;
70153;SDS011;57519;51.494;-2.626;2022-12-05T10:09:55;12.20;;;7.82;;
70153;SDS011;57519;51.494;-2.626;2022-12-05T10:15:28;17.27;;;10.13;;
70153;SDS011;57519;51.494;-2.626;2022-12-05T10:18:14;27.88;;;12.35;;
70153;SDS011;57519;51.494;-2.626;2022-12-05T10:21:14;23.92;;;11.60;;
70153;SDS011;57519;51.494;-2.626;2022-12-05T10:26:24;20.97;;;11.37;;
70153;SDS011;57519;51.494;-2.626;2022-12-05T10:29:01;20.17;;;9.32;;
70153;SDS011;57519;51.494;-2.626;2022-12-05T10:31:41;14.00;;;7.88;;
70153;SDS011;57519;51.494;-2.626;2022-12-05T10:36:35;19.07;;;9.40;;
70153;SDS011;57519;51.494;-2.626;2022-12-05T10:39:00;19.60;;;11.03;;
70153;SDS011;57519;51.494;-2.626;2022-12-05T10:41:26;13.17;;;8.27;;
70153;SDS011;57519;51.494;-2.626;2022-12-05T10:43:53;23.13;;;11.38;;
70153;SDS011;57519;51.494;-2.626;2022-12-05T10:46:19;20.37;;;9.47;;
70153;SDS011;57519;51.494;-2.626;2022-12-05T10:48:45;16.92;;;8.93;;
70153;SDS011;57519;51.494;-2.626;2022-12-05T10:51:13;13.93;;;8.53;;
70153;SDS011;57519;51.494;-2.626;2022-12-05T10:53:46;18.52;;;10.43;;
70153;SDS011;57519;51.494;-2.626;2022-12-05T10:59:06;19.30;;;6.53;;
70153;SDS011;57519;51.494;-2.626;2022-12-05T11:01:33;16.52;;;8.35;;
70153;SDS011;57519;51.494;-2.626;2022-12-05T11:04:01;20.75;;;11.35;;
70153;SDS011;57519;51.494;-2.626;2022-12-05T11:06:34;11.85;;;7.75;;
70153;SDS011;57519;51.494;-2.626;2022-12-05T11:14:29;13.88;;;8.10;;
70153;SDS011;57519;51.494;-2.626;2022-12-05T11:16:58;14.40;;;8.40;;
70153;SDS011;57519;51.494;-2.626;2022-12-05T11:19:26;16.20;;;9.23;;
70153;SDS011;57519;51.494;-2.626;2022-12-05T11:21:54;13.27;;;7.35;;
70153;SDS011;57519;51.494;-2.626;2022-12-05T11:24:33;17.63;;;8.43;;
70153;SDS011;57519;51.494;-2.626;2022-12-05T11:27:33;21.75;;;10.05;;
70153;SDS011;57519;51.494;-2.626;2022-12-05T11:32:43;11.77;;;6.53;;
70153;SDS011;57519;51.494;-2.626;2022-12-05T11:37:51;15.70;;;8.82;;
70153;SDS011;57519;51.494;-2.626;2022-12-05T11:40:26;12.03;;;7.47;;
70153;SDS011;57519;51.494;-2.626;2022-12-05T11:46:11;11.02;;;6.10;;
70153;SDS011;57519;51.494;-2.626;2022-12-05T11:54:57;13.03;;;8.10;;
70153;SDS011;57519;51.494;-2.626;2022-12-05T11:58:21;9.13;;;5.80;;
70153;SDS011;57519;51.494;-2.626;2022-12-05T12:01:01;13.60;;;7.75;;
70153;SDS011;57519;51.494;-2.626;2022-12-05T12:11:59;11.80;;;7.30;;
70153;SDS011;57519;51.494;-2.626;2022-12-05T12:17:10;10.05;;;6.90;;
70153;SDS011;57519;51.494;-2.626;2022-12-05T12:28:45;8.80;;;5.72;;
70153;SDS011;57519;51.494;-2.626;2022-12-05T12:42:54;9.20;;;6.57;;
70153;SDS011;57519;51.494;-2.626;2022-12-05T12:48:29;10.88;;;6.05;;
70153;SDS011;57519;51.494;-2.626;2022-12-05T12:51:02;14.73;;;8.13;;
70153;SDS011;57519;51.494;-2.626;2022-12-05T13:01:57;15.35;;;7.88;;
70153;SDS011;57519;51.494;-2.626;2022-12-05T13:04:36;16.08;;;7.38;;
70153;SDS011;57519;51.494;-2.626;2022-12-05T13:07:12;15.23;;;7.25;;
70153;SDS011;57519;51.494;-2.626;2022-12-05T13:09:47;13.97;;;7.23;;
70153;SDS011;57519;51.494;-2.626;2022-12-05T13:12:20;10.05;;;7.15;;
70153;SDS011;57519;51.494;-2.626;2022-12-05T13:14:50;7.50;;;5.05;;
70153;SDS011;57519;51.494;-2.626;2022-12-05T13:17:19;12.80;;;6.78;;
70153;SDS011;57519;51.494;-2.626;2022-12-05T13:19:47;8.55;;;6.10;;
70153;SDS011;57519;51.494;-2.626;2022-12-05T13:22:17;13.87;;;6.37;;
70153;SDS011;57519;51.494;-2.626;2022-12-05T13:24:44;8.70;;;6.20;;
70153;SDS011;57519;51.494;-2.626;2022-12-05T13:27:16;14.47;;;6.43;;
70153;SDS011;57519;51.494;-2.626;2022-12-05T13:29:51;11.75;;;5.72;;
70153;SDS011;57519;51.494;-2.626;2022-12-05T13:35:07;9.45;;;5.43;;
70153;SDS011;57519;51.494;-2.626;2022-12-05T13:37:45;7.22;;;5.15;;
70153;SDS011;57519;51.494;-2.626;2022-12-05T13:40:31;7.83;;;5.40;;
70153;SDS011;57519;51.494;-2.626;2022-12-05T13:43:19;8.18;;;5.82;;
70153;SDS011;57519;51.494;-2.626;2022-12-05T13:46:06;13.10;;;7.18;;
70153;SDS011;57519;51.494;-2.626;2022-12-05T13:48:36;11.43;;;7.05;;
70153;SDS011;57519;51.494;-2.626;2022-12-05T13:51:10;12.88;;;6.75;;
70153;SDS011;57519;51.494;-2.626;2022-12-05T13:53:49;13.87;;;6.43;;
70153;SDS011;57519;51.494;-2.626;2022-12-05T13:56:45;8.10;;;5.90;;
70153;SDS011;57519;51.494;-2.626;2022-12-05T14:10:19;8.57;;;5.65;;
70153;SDS011;57519;51.494;-2.626;2022-12-05T14:20:52;12.13;;;6.97;;
70153;SDS011;57519;51.494;-2.626;2022-12-05T14:23:44;11.00;;;6.32;;
70153;SDS011;57519;51.494;-2.626;2022-12-05T14:34:37;10.57;;;5.87;;
70153;SDS011;57519;51.494;-2.626;2022-12-05T14:39:44;9.80;;;6.20;;
70153;SDS011;57519;51.494;-2.626;2022-12-05T14:42:25;10.95;;;5.65;;
70153;SDS011;57519;51.494;-2.626;2022-12-05T14:44:51;12.80;;;6.03;;
70153;SDS011;57519;51.494;-2.626;2022-12-05T14:47:21;12.48;;;6.55;;
70153;SDS011;57519;51.494;-2.626;2022-12-05T14:55:47;9.38;;;5.75;;
70153;SDS011;57519;51.494;-2.626;2022-12-05T14:58:17;9.77;;;6.03;;
70153;SDS011;57519;51.494;-2.626;2022-12-05T15:00:52;10.88;;;5.32;;
70153;SDS011;57519;51.494;-2.626;2022-12-05T15:03:22;7.13;;;5.00;;
70153;SDS011;57519;51.494;-2.626;2022-12-05T15:05:51;9.25;;;5.30;;
70153;SDS011;57519;51.494;-2.626;2022-12-05T15:08:17;12.40;;;5.38;;
70153;SDS011;57519;51.494;-2.626;2022-12-05T15:10:44;9.82;;;6.05;;
70153;SDS011;57519;51.494;-2.626;2022-12-05T15:13:28;6.57;;;5.97;;
70153;SDS011;57519;51.494;-2.626;2022-12-05T15:16:14;5.50;;;3.33;;
70153;SDS011;57519;51.494;-2.626;2022-12-05T15:18:48;11.60;;;5.63;;
70153;SDS011;57519;51.494;-2.626;2022-12-05T15:21:50;7.57;;;4.45;;
70153;SDS011;57519;51.494;-2.626;2022-12-05T15:24:11;12.98;;;6.20;;
70153;SDS011;57519;51.494;-2.626;2022-12-05T15:29:24;9.17;;;5.63;;
70153;SDS011;57519;51.494;-2.626;2022-12-05T15:31:52;12.80;;;6.47;;
70153;SDS011;57519;51.494;-2.626;2022-12-05T15:42:52;6.53;;;4.77;;
70153;SDS011;57519;51.494;-2.626;2022-12-05T15:45:23;6.40;;;5.18;;
70153;SDS011;57519;51.494;-2.626;2022-12-05T15:48:11;10.80;;;6.90;;
70153;SDS011;57519;51.494;-2.626;2022-12-05T15:58:40;11.82;;;5.95;;
70153;SDS011;57519;51.494;-2.626;2022-12-05T16:01:11;10.10;;;6.00;;
70153;SDS011;57519;51.494;-2.626;2022-12-05T16:03:45;14.73;;;6.80;;
70153;SDS011;57519;51.494;-2.626;2022-12-05T16:06:21;9.82;;;6.13;;
70153;SDS011;57519;51.494;-2.626;2022-12-05T16:08:58;11.00;;;5.77;;
70153;SDS011;57519;51.494;-2.626;2022-12-05T16:11:25;6.13;;;4.93;;
70153;SDS011;57519;51.494;-2.626;2022-12-05T16:13:53;8.18;;;5.57;;
70153;SDS011;57519;51.494;-2.626;2022-12-05T16:16:21;10.45;;;6.50;;
70153;SDS011;57519;51.494;-2.626;2022-12-05T16:18:51;11.67;;;6.20;;
70153;SDS011;57519;51.494;-2.626;2022-12-05T16:21:32;13.70;;;6.72;;
70153;SDS011;57519;51.494;-2.626;2022-12-05T16:24:16;9.45;;;5.32;;
70153;SDS011;57519;51.494;-2.626;2022-12-05T16:26:50;7.60;;;5.68;;
70153;SDS011;57519;51.494;-2.626;2022-12-05T16:29:29;8.93;;;5.35;;
70153;SDS011;57519;51.494;-2.626;2022-12-05T16:31:57;11.63;;;5.33;;
70153;SDS011;57519;51.494;-2.626;2022-12-05T16:34:24;9.88;;;5.18;;
70153;SDS011;57519;51.494;-2.626;2022-12-05T16:36:52;12.77;;;6.47;;
70153;SDS011;57519;51.494;-2.626;2022-12-05T16:39:19;11.55;;;6.90;;
70153;SDS011;57519;51.494;-2.626;2022-12-05T16:41:45;13.95;;;6.68;;
70153;SDS011;57519;51.494;-2.626;2022-12-05T16:46:53;9.32;;;6.15;;
70153;SDS011;57519;51.494;-2.626;2022-12-05T16:51:58;10.52;;;7.45;;
70153;SDS011;57519;51.494;-2.626;2022-12-05T16:54:42;16.45;;;7.57;;
70153;SDS011;57519;51.494;-2.626;2022-12-05T16:57:14;11.63;;;6.70;;
70153;SDS011;57519;51.494;-2.626;2022-12-05T16:59:40;9.55;;;7.07;;
70153;SDS011;57519;51.494;-2.626;2022-12-05T17:02:15;9.48;;;6.30;;
70153;SDS011;57519;51.494;-2.626;2022-12-05T17:04:43;14.30;;;6.22;;
70153;SDS011;57519;51.494;-2.626;2022-12-05T17:07:10;19.45;;;7.72;;
70153;SDS011;57519;51.494;-2.626;2022-12-05T17:09:36;10.00;;;6.20;;
70153;SDS011;57519;51.494;-2.626;2022-12-05T17:12:04;11.10;;;6.97;;
70153;SDS011;57519;51.494;-2.626;2022-12-05T17:14:35;14.15;;;5.82;;
70153;SDS011;57519;51.494;-2.626;2022-12-05T17:17:00;13.35;;;6.13;;
70153;SDS011;57519;51.494;-2.626;2022-12-05T17:19:26;13.40;;;7.00;;
70153;SDS011;57519;51.494;-2.626;2022-12-05T17:21:52;11.70;;;6.70;;
70153;SDS011;57519;51.494;-2.626;2022-12-05T17:24:18;13.60;;;7.43;;
70153;SDS011;57519;51.494;-2.626;2022-12-05T17:26:44;13.33;;;7.07;;
70153;SDS011;57519;51.494;-2.626;2022-12-05T17:29:13;13.50;;;7.35;;
70153;SDS011;57519;51.494;-2.626;2022-12-05T17:31:38;6.40;;;4.50;;
70153;SDS011;57519;51.494;-2.626;2022-12-05T17:34:09;9.90;;;6.60;;
70153;SDS011;57519;51.494;-2.626;2022-12-05T17:36:37;16.27;;;7.03;;